createdAt,value
2023-02-21T00:00:46.905Z,7.22
2023-02-21T00:01:47.568Z,7.19
2023-02-21T00:02:47.539Z,7.22
2023-02-21T00:03:47.750Z,7.18
2023-02-21T00:04:48.250Z,7.26
2023-02-21T00:05:49.369Z,7.15
2023-02-21T00:06:49.640Z,7.21
2023-02-21T00:07:50.968Z,7.22
2023-02-21T00:08:51.480Z,7.21
2023-02-21T00:09:52.220Z,7.19
2023-02-21T00:10:52.559Z,7.21
2023-02-21T00:11:52.783Z,7.15
2023-02-21T00:12:53.982Z,7.13
2023-02-21T00:13:54.091Z,7.1
2023-02-21T00:14:54.591Z,7.07
2023-02-21T00:15:54.247Z,7.08
2023-02-21T00:16:54.920Z,7.05
2023-02-21T00:17:55.673Z,7.1
2023-02-21T00:18:56.610Z,7.04
2023-02-21T00:19:57.528Z,7.1
2023-02-21T00:20:58.231Z,7.01
2023-02-21T00:21:58.745Z,6.97
2023-02-21T00:22:58.689Z,7.08
2023-02-21T00:23:58.926Z,6.95
2023-02-21T00:24:59.837Z,6.87
2023-02-21T00:26:00.740Z,6.89
2023-02-21T00:27:01.054Z,6.77
2023-02-21T00:28:01.679Z,6.75
2023-02-21T00:29:01.777Z,6.82
2023-02-21T00:30:02.035Z,6.74
2023-02-21T00:31:02.908Z,6.67
2023-02-21T00:32:03.801Z,6.65
2023-02-21T00:33:07.446Z,6.82
2023-02-21T00:34:05.669Z,6.75
2023-02-21T00:35:05.823Z,6.71
2023-02-21T00:36:06.571Z,6.71
2023-02-21T00:37:07.530Z,6.62
2023-02-21T00:38:07.615Z,6.7
2023-02-21T00:39:07.621Z,6.65
2023-02-21T00:40:09.114Z,6.72
2023-02-21T00:41:09.311Z,6.71
2023-02-21T00:42:09.858Z,6.77
2023-02-21T00:43:10.494Z,6.71
2023-02-21T00:44:11.447Z,6.72
2023-02-21T00:45:12.644Z,6.67
2023-02-21T00:46:13.044Z,6.57
2023-02-21T00:47:13.877Z,6.59
2023-02-21T00:48:14.585Z,6.59
2023-02-21T00:49:15.793Z,6.62
2023-02-21T00:50:16.178Z,6.59
2023-02-21T00:51:17.200Z,6.59
2023-02-21T00:52:16.823Z,6.68
2023-02-21T00:53:17.090Z,6.67
2023-02-21T00:54:17.314Z,6.74
2023-02-21T00:55:18.288Z,6.59
2023-02-21T00:56:19.190Z,6.65
2023-02-21T00:57:19.534Z,6.5
2023-02-21T00:58:20.875Z,6.43
2023-02-21T00:59:20.501Z,6.38
2023-02-21T01:00:21.157Z,6.41
2023-02-21T01:01:22.686Z,6.41
2023-02-21T01:02:22.168Z,6.44
2023-02-21T01:03:23.088Z,6.43
2023-02-21T01:04:24.410Z,6.5
2023-02-21T01:05:24.492Z,6.41
2023-02-21T01:06:25.449Z,6.43
2023-02-21T01:07:25.959Z,6.38
2023-02-21T01:08:26.981Z,6.52
2023-02-21T01:09:26.945Z,6.44
2023-02-21T01:10:27.866Z,6.47
2023-02-21T01:11:29.383Z,6.41
2023-02-21T01:12:29.336Z,6.36
2023-02-21T01:13:29.559Z,6.44
2023-02-21T01:14:33.300Z,6.49
2023-02-21T01:15:30.751Z,6.43
2023-02-21T01:16:31.797Z,6.47
2023-02-21T01:17:32.010Z,6.49
2023-02-21T01:18:32.788Z,6.5
2023-02-21T01:19:33.295Z,6.49
2023-02-21T01:20:33.231Z,6.44
2023-02-21T01:21:34.156Z,6.46
2023-02-21T01:22:34.399Z,6.39
2023-02-21T01:23:34.781Z,6.36
2023-02-21T01:24:35.359Z,6.35
2023-02-21T01:25:35.573Z,6.41
2023-02-21T01:26:36.111Z,6.46
2023-02-21T01:27:37.025Z,6.38
2023-02-21T01:28:38.016Z,6.44
2023-02-21T01:29:38.517Z,6.41
2023-02-21T01:30:39.033Z,6.38
2023-02-21T01:31:39.495Z,6.52
2023-02-21T01:32:40.557Z,6.5
2023-02-21T01:33:41.474Z,6.54
2023-02-21T01:34:42.404Z,6.54
2023-02-21T01:35:43.337Z,6.47
2023-02-21T01:36:43.561Z,6.49
2023-02-21T01:37:44.248Z,6.54
2023-02-21T01:38:44.864Z,6.47
2023-02-21T01:39:45.086Z,6.6
2023-02-21T01:40:45.570Z,6.53
2023-02-21T01:41:45.893Z,6.68
2023-02-21T01:42:47.908Z,6.62
2023-02-21T01:43:47.797Z,6.52
2023-02-21T01:44:47.732Z,6.5
2023-02-21T01:45:48.724Z,6.43
2023-02-21T01:46:48.860Z,6.43
2023-02-21T01:47:49.776Z,6.52
2023-02-21T01:48:51.363Z,6.47
2023-02-21T01:49:50.700Z,6.38
2023-02-21T01:50:51.616Z,6.41
2023-02-21T01:51:52.376Z,6.5
2023-02-21T01:52:52.894Z,6.47
2023-02-21T01:53:53.135Z,6.46
2023-02-21T01:54:53.675Z,6.5
2023-02-21T01:55:53.887Z,6.54
2023-02-21T01:56:54.547Z,6.49
2023-02-21T01:57:54.771Z,6.38
2023-02-21T01:58:55.790Z,6.49
2023-02-21T01:59:55.413Z,6.43
2023-02-21T02:00:56.344Z,6.39
2023-02-21T02:01:56.593Z,6.41
2023-02-21T02:02:57.093Z,6.41
2023-02-21T02:03:57.304Z,6.47
2023-02-21T02:04:57.643Z,6.47
2023-02-21T02:05:58.692Z,6.41
2023-02-21T02:06:58.919Z,6.54
2023-02-21T02:07:59.161Z,6.49
2023-02-21T02:08:59.929Z,6.52
2023-02-21T02:09:59.887Z,6.49
2023-02-21T02:11:01.378Z,6.43
2023-02-21T02:12:01.341Z,6.52
2023-02-21T02:13:02.530Z,6.41
2023-02-21T02:14:02.180Z,6.31
2023-02-21T02:15:03.399Z,6.29
2023-02-21T02:16:03.202Z,6.34
2023-02-21T02:17:04.120Z,6.16
2023-02-21T02:18:04.646Z,6.13
2023-02-21T02:19:05.776Z,6.07
2023-02-21T02:20:06.512Z,6.05
2023-02-21T02:21:07.428Z,5.91
2023-02-21T02:22:07.932Z,5.9
2023-02-21T02:23:09.152Z,5.91
2023-02-21T02:24:09.379Z,5.99
2023-02-21T02:25:09.629Z,6.01
2023-02-21T02:26:09.837Z,5.94
2023-02-21T02:27:10.317Z,6.02
2023-02-21T02:28:10.964Z,5.92
2023-02-21T02:29:10.957Z,6.02
2023-02-21T02:30:12.086Z,6.01
2023-02-21T02:31:13.649Z,6.01
2023-02-21T02:32:13.061Z,5.98
2023-02-21T02:33:13.838Z,5.94
2023-02-21T02:34:14.050Z,5.94
2023-02-21T02:35:14.539Z,6.06
2023-02-21T02:36:14.178Z,6.07
2023-02-21T02:37:15.401Z,6.06
2023-02-21T02:38:16.670Z,6.06
2023-02-21T02:39:17.054Z,6.05
2023-02-21T02:40:17.343Z,6.13
2023-02-21T02:41:18.167Z,6.06
2023-02-21T02:42:18.363Z,6.19
2023-02-21T02:43:19.277Z,6.13
2023-02-21T02:44:19.490Z,6.16
2023-02-21T02:45:19.714Z,6.15
2023-02-21T02:46:20.156Z,6.13
2023-02-21T02:47:21.500Z,6.09
2023-02-21T02:48:21.704Z,6.12
2023-02-21T02:49:22.016Z,6.2
2023-02-21T02:50:22.212Z,6.1
2023-02-21T02:51:23.249Z,6.15
2023-02-21T02:52:23.194Z,6.26
2023-02-21T02:53:24.421Z,6.22
2023-02-21T02:54:24.791Z,6.17
2023-02-21T02:55:25.080Z,6.22
2023-02-21T02:56:25.985Z,6.31
2023-02-21T02:57:26.375Z,6.32
2023-02-21T02:58:27.004Z,6.38
2023-02-21T02:59:27.794Z,6.31
2023-02-21T03:00:28.297Z,6.31
2023-02-21T03:01:29.096Z,6.19
2023-02-21T03:02:30.454Z,6.29
2023-02-21T03:03:30.495Z,6.29
2023-02-21T03:04:30.810Z,6.25
2023-02-21T03:05:31.728Z,6.36
2023-02-21T03:06:31.926Z,6.31
2023-02-21T03:07:32.288Z,6.36
2023-02-21T03:08:32.518Z,6.34
2023-02-21T03:09:33.342Z,6.38
2023-02-21T03:10:33.888Z,6.39
2023-02-21T03:11:34.801Z,6.35
2023-02-21T03:12:35.428Z,6.32
2023-02-21T03:13:35.919Z,6.36
2023-02-21T03:14:36.857Z,6.35
2023-02-21T03:15:37.060Z,6.36
2023-02-21T03:16:37.322Z,6.39
2023-02-21T03:17:37.821Z,6.39
2023-02-21T03:18:38.385Z,6.35
2023-02-21T03:19:38.708Z,6.35
2023-02-21T03:20:39.619Z,6.39
2023-02-21T03:21:39.548Z,6.39
2023-02-21T03:22:40.481Z,6.39
2023-02-21T03:23:41.022Z,6.39
2023-02-21T03:24:41.294Z,6.41
2023-02-21T03:25:41.864Z,6.38
2023-02-21T03:26:41.775Z,6.38
2023-02-21T03:27:42.420Z,6.41
2023-02-21T03:28:43.148Z,6.39
2023-02-21T03:29:43.478Z,6.38
2023-02-21T03:30:44.533Z,6.41
2023-02-21T03:31:44.919Z,6.39
2023-02-21T03:32:45.661Z,6.36
2023-02-21T03:33:46.582Z,6.39
2023-02-21T03:34:47.067Z,6.41
2023-02-21T03:35:47.272Z,6.39
2023-02-21T03:36:47.185Z,6.36
2023-02-21T03:37:48.133Z,6.38
2023-02-21T03:38:49.380Z,6.43
2023-02-21T03:39:50.043Z,6.34
2023-02-21T03:40:50.615Z,6.31
2023-02-21T03:41:50.815Z,6.31
2023-02-21T03:42:50.737Z,6.2
2023-02-21T03:43:51.101Z,6.22
2023-02-21T03:44:52.046Z,6.2
2023-02-21T03:45:53.283Z,6.12
2023-02-21T03:46:53.628Z,6.25
2023-02-21T03:47:53.664Z,6.19
2023-02-21T03:48:54.317Z,6.13
2023-02-21T03:49:55.013Z,6.16
2023-02-21T03:50:54.937Z,6.15
2023-02-21T03:51:55.467Z,6.15
2023-02-21T03:52:56.404Z,6.12
2023-02-21T03:53:57.217Z,6.19
2023-02-21T03:54:57.169Z,6.12
2023-02-21T03:55:57.687Z,6.19
2023-02-21T03:56:57.901Z,6.2
2023-02-21T03:57:58.112Z,6.2
2023-02-21T03:58:59.111Z,6.13
2023-02-21T03:59:59.570Z,6.15
2023-02-21T04:01:00.023Z,6.12
2023-02-21T04:02:01.032Z,6.09
2023-02-21T04:03:01.606Z,6.07
2023-02-21T04:04:01.534Z,6.05
2023-02-21T04:05:02.058Z,6.02
2023-02-21T04:06:02.364Z,6.09
2023-02-21T04:07:02.873Z,6.05
2023-02-21T04:08:03.117Z,6.06
2023-02-21T04:09:04.143Z,6.02
2023-02-21T04:10:04.622Z,6.01
2023-02-21T04:11:05.133Z,6.01
2023-02-21T04:12:05.735Z,5.91
2023-02-21T04:13:06.655Z,6.01
2023-02-21T04:14:07.564Z,6.02
2023-02-21T04:15:08.485Z,5.91
2023-02-21T04:16:09.490Z,5.84
2023-02-21T04:17:10.145Z,5.73
2023-02-21T04:18:10.074Z,5.72
2023-02-21T04:19:10.299Z,5.73
2023-02-21T04:20:10.917Z,5.69
2023-02-21T04:21:11.154Z,5.67
2023-02-21T04:22:11.517Z,5.72
2023-02-21T04:23:12.463Z,5.65
2023-02-21T04:24:13.681Z,5.64
2023-02-21T04:25:14.207Z,5.52
2023-02-21T04:26:14.740Z,5.51
2023-02-21T04:27:15.111Z,5.55
2023-02-21T04:28:16.752Z,5.52
2023-02-21T04:29:16.698Z,5.52
2023-02-21T04:30:17.827Z,5.59
2023-02-21T04:31:18.844Z,5.55
2023-02-21T04:32:18.757Z,5.43
2023-02-21T04:33:19.633Z,5.58
2023-02-21T04:34:19.844Z,5.61
2023-02-21T04:35:21.034Z,5.58
2023-02-21T04:36:20.955Z,5.59
2023-02-21T04:37:21.460Z,5.56
2023-02-21T04:38:21.696Z,5.56
2023-02-21T04:39:21.913Z,5.52
2023-02-21T04:40:21.707Z,5.61
2023-02-21T04:41:23.060Z,5.64
2023-02-21T04:42:23.314Z,5.64
2023-02-21T04:43:24.522Z,5.54
2023-02-21T04:44:25.435Z,5.61
2023-02-21T04:45:25.632Z,5.51
2023-02-21T04:46:26.172Z,5.49
2023-02-21T04:47:26.080Z,5.58
2023-02-21T04:48:26.707Z,5.56
2023-02-21T04:49:27.907Z,5.52
2023-02-21T04:50:28.336Z,5.55
2023-02-21T04:51:29.266Z,5.43
2023-02-21T04:52:29.462Z,5.43
2023-02-21T04:53:29.970Z,5.55
2023-02-21T04:54:29.921Z,5.51
2023-02-21T04:55:30.169Z,5.43
2023-02-21T04:56:30.731Z,5.49
2023-02-21T04:57:30.691Z,5.58
2023-02-21T04:58:46.083Z,5.59
2023-02-21T04:59:32.420Z,5.55
2023-02-21T05:00:33.188Z,5.56
2023-02-21T05:01:33.598Z,5.52
2023-02-21T05:02:34.080Z,5.47
2023-02-21T05:03:34.729Z,5.43
2023-02-21T05:04:35.808Z,5.38
2023-02-21T05:05:36.527Z,5.31
2023-02-21T05:06:37.167Z,5.22
2023-02-21T05:07:37.815Z,5.22
2023-02-21T05:08:38.539Z,5.08
2023-02-21T05:09:38.505Z,5.13
2023-02-21T05:10:51.318Z,5.13
2023-02-21T05:11:39.552Z,5.08
2023-02-21T05:12:39.747Z,5.18
2023-02-21T05:13:40.768Z,5.08
2023-02-21T05:14:41.424Z,5.12
2023-02-21T05:15:42.332Z,5.05
2023-02-21T05:16:42.989Z,4.97
2023-02-21T05:17:43.649Z,5.08
2023-02-21T05:18:44.319Z,5.07
2023-02-21T05:19:45.567Z,5.07
2023-02-21T05:20:45.614Z,5.01
2023-02-21T05:21:45.859Z,5
2023-02-21T05:22:46.494Z,5
2023-02-21T05:23:46.853Z,5.01
2023-02-21T05:24:47.086Z,5
2023-02-21T05:25:47.324Z,4.89
2023-02-21T05:26:48.542Z,4.92
2023-02-21T05:27:49.068Z,4.86
2023-02-21T05:28:49.603Z,4.83
2023-02-21T05:29:50.315Z,4.86
2023-02-21T05:30:51.468Z,4.87
2023-02-21T05:31:52.178Z,4.89
2023-02-21T05:32:52.558Z,4.86
2023-02-21T05:33:53.179Z,4.82
2023-02-21T05:34:53.919Z,4.9
2023-02-21T05:35:54.248Z,4.84
2023-02-21T05:36:54.457Z,4.86
2023-02-21T05:37:55.081Z,4.95
2023-02-21T05:38:56.970Z,4.83
2023-02-21T05:39:56.858Z,4.82
2023-02-21T05:40:57.219Z,4.86
2023-02-21T05:41:57.468Z,4.86
2023-02-21T05:42:58.019Z,4.79
2023-02-21T05:43:58.218Z,4.82
2023-02-21T05:44:59.184Z,4.82
2023-02-21T05:45:59.519Z,4.76
2023-02-21T05:46:59.634Z,4.82
2023-02-21T05:47:59.572Z,4.78
2023-02-21T05:49:00.499Z,4.79
2023-02-21T05:50:00.701Z,4.64
2023-02-21T05:51:01.441Z,4.74
2023-02-21T05:52:03.064Z,4.7
2023-02-21T05:53:03.302Z,4.7
2023-02-21T05:54:03.810Z,4.74
2023-02-21T05:55:04.315Z,4.79
2023-02-21T05:56:04.228Z,4.82
2023-02-21T05:57:05.216Z,4.82
2023-02-21T05:58:05.740Z,4.82
2023-02-21T05:59:06.255Z,4.75
2023-02-21T06:00:06.170Z,4.74
2023-02-21T06:01:07.471Z,4.74
2023-02-21T06:02:07.729Z,4.61
2023-02-21T06:03:11.011Z,4.74
2023-02-21T06:04:09.117Z,4.67
2023-02-21T06:05:09.596Z,4.67
2023-02-21T06:06:09.942Z,4.68
2023-02-21T06:07:11.138Z,4.63
2023-02-21T06:08:14.955Z,4.64
2023-02-21T06:09:12.594Z,4.66
2023-02-21T06:10:12.825Z,4.64
2023-02-21T06:11:13.353Z,4.74
2023-02-21T06:12:13.772Z,4.7
2023-02-21T06:13:14.025Z,4.74
2023-02-21T06:14:15.381Z,4.78
2023-02-21T06:15:15.630Z,4.79
2023-02-21T06:16:16.685Z,4.89
2023-02-21T06:17:17.189Z,4.75
2023-02-21T06:18:17.685Z,4.79
2023-02-21T06:19:18.163Z,4.82
2023-02-21T06:20:18.384Z,4.7
2023-02-21T06:21:19.572Z,4.78
2023-02-21T06:22:20.056Z,4.68
2023-02-21T06:23:20.574Z,4.66
2023-02-21T06:24:21.549Z,4.67
2023-02-21T06:25:21.771Z,4.66
2023-02-21T06:26:22.706Z,4.71
2023-02-21T06:27:22.671Z,4.63
2023-02-21T06:28:23.197Z,4.63
2023-02-21T06:29:23.110Z,4.71
2023-02-21T06:30:23.965Z,4.71
2023-02-21T06:31:24.071Z,4.67
2023-02-21T06:32:24.928Z,4.79
2023-02-21T06:33:25.559Z,4.89
2023-02-21T06:34:25.801Z,5.08
2023-02-21T06:35:27.100Z,5.18
2023-02-21T06:36:27.813Z,5.37
2023-02-21T06:37:28.750Z,5.74
2023-02-21T06:38:28.959Z,6.02
2023-02-21T06:39:30.199Z,6.22
2023-02-21T06:40:30.139Z,6.28
2023-02-21T06:41:31.200Z,6.32
2023-02-21T06:42:32.430Z,6.46
2023-02-21T06:43:32.958Z,6.64
2023-02-21T06:44:33.626Z,6.74
2023-02-21T06:45:34.544Z,6.59
2023-02-21T06:46:34.975Z,6.44
2023-02-21T06:47:35.079Z,6.36
2023-02-21T06:48:35.995Z,6.29
2023-02-21T06:49:36.497Z,6.35
2023-02-21T06:50:36.438Z,6.31
2023-02-21T06:51:37.720Z,6.35
2023-02-21T06:52:37.652Z,6.35
2023-02-21T06:53:38.906Z,6.36
2023-02-21T06:54:39.166Z,6.32
2023-02-21T06:55:39.695Z,6.44
2023-02-21T06:56:39.922Z,6.41
2023-02-21T06:57:39.643Z,6.34
2023-02-21T06:58:41.187Z,6.44
2023-02-21T06:59:41.402Z,6.54
2023-02-21T07:00:42.060Z,6.64
2023-02-21T07:01:42.238Z,6.65
2023-02-21T07:02:43.535Z,6.62
2023-02-21T07:03:43.795Z,6.59
2023-02-21T07:04:44.466Z,6.64
2023-02-21T07:05:44.885Z,6.62
2023-02-21T07:06:45.533Z,6.74
2023-02-21T07:07:46.472Z,6.68
2023-02-21T07:08:46.523Z,6.9
2023-02-21T07:09:47.757Z,6.89
2023-02-21T07:10:48.432Z,7.15
2023-02-21T07:11:49.198Z,7.11
2023-02-21T07:12:50.137Z,6.97
2023-02-21T07:13:50.377Z,6.96
2023-02-21T07:14:51.583Z,6.9
2023-02-21T07:15:52.163Z,6.87
2023-02-21T07:16:52.293Z,6.85
2023-02-21T07:17:53.491Z,6.85
2023-02-21T07:18:53.403Z,6.8
2023-02-21T07:19:54.340Z,6.93
2023-02-21T07:20:55.349Z,6.93
2023-02-21T07:21:55.499Z,6.93
2023-02-21T07:22:56.716Z,7.07
2023-02-21T07:23:56.640Z,7.14
2023-02-21T07:24:57.571Z,7.21
2023-02-21T07:25:57.531Z,7.22
2023-02-21T07:26:58.733Z,7.22
2023-02-21T07:27:59.744Z,7.58
2023-02-21T07:29:00.178Z,8.09
2023-02-21T07:30:00.096Z,8.44
2023-02-21T07:31:00.958Z,8.82
2023-02-21T07:32:01.048Z,9.13
2023-02-21T07:33:01.454Z,9.54
2023-02-21T07:34:01.953Z,9.82
2023-02-21T07:35:01.862Z,10.2
2023-02-21T07:36:02.775Z,10.67
2023-02-21T07:37:03.720Z,11.22
2023-02-21T07:38:04.674Z,11.59
2023-02-21T07:39:05.594Z,11.85
2023-02-21T07:40:06.733Z,11.81
2023-02-21T07:41:05.978Z,11.67
2023-02-21T07:42:06.268Z,11.59
2023-02-21T07:43:06.670Z,11.6
2023-02-21T07:44:08.197Z,11.44
2023-02-21T07:45:08.729Z,11.41
2023-02-21T07:46:08.804Z,11.41
2023-02-21T07:47:08.862Z,11.67
2023-02-21T07:48:09.503Z,12
2023-02-21T07:49:10.699Z,12.36
2023-02-21T07:50:11.335Z,12.65
2023-02-21T07:51:11.456Z,12.99
2023-02-21T07:52:11.828Z,12.8
2023-02-21T07:53:13.978Z,12.87
2023-02-21T07:54:12.917Z,12.9
2023-02-21T07:55:14.423Z,12.65
2023-02-21T07:56:14.426Z,12.55
2023-02-21T07:57:14.643Z,12.54
2023-02-21T07:58:15.591Z,12.55
2023-02-21T07:59:16.355Z,12.48
2023-02-21T08:00:17.280Z,12.36
2023-02-21T08:01:18.760Z,12.48
2023-02-21T08:02:19.582Z,12.36
2023-02-21T08:03:19.543Z,12.4
2023-02-21T08:04:20.253Z,12.4
2023-02-21T08:05:20.679Z,12.5
2023-02-21T08:06:22.224Z,12.43
2023-02-21T08:07:22.177Z,12.43
2023-02-21T08:08:22.870Z,12.68
2023-02-21T08:09:22.810Z,12.93
2023-02-21T08:10:24.487Z,13.13
2023-02-21T08:11:24.819Z,13.28
2023-02-21T08:12:25.143Z,13.33
2023-02-21T08:13:25.123Z,13.17
2023-02-21T08:14:25.707Z,13.21
2023-02-21T08:15:25.644Z,13.24
2023-02-21T08:16:26.936Z,13.39
2023-02-21T08:17:27.590Z,13.39
2023-02-21T08:18:27.806Z,13.39
2023-02-21T08:19:28.010Z,13.09
2023-02-21T08:20:28.710Z,12.98
2023-02-21T08:21:29.620Z,13.03
2023-02-21T08:22:30.943Z,13.19
2023-02-21T08:23:31.899Z,13.37
2023-02-21T08:24:32.402Z,13.42
2023-02-21T08:25:32.948Z,13.6
2023-02-21T08:26:32.903Z,13.73
2023-02-21T08:27:33.557Z,14.08
2023-02-21T08:28:34.532Z,14.38
2023-02-21T08:29:34.523Z,14.56
2023-02-21T08:30:35.585Z,15
2023-02-21T08:31:37.128Z,15.39
2023-02-21T08:32:37.532Z,15.54
2023-02-21T08:33:38.544Z,15.67
2023-02-21T08:34:38.777Z,15.83
2023-02-21T08:35:38.982Z,16.08
2023-02-21T08:36:39.377Z,16.24
2023-02-21T08:37:40.572Z,16.5
2023-02-21T08:38:40.826Z,16.5
2023-02-21T08:39:40.794Z,16.25
2023-02-21T08:40:41.027Z,15.91
2023-02-21T08:41:42.317Z,15.52
2023-02-21T08:42:42.103Z,15.17
2023-02-21T08:43:42.638Z,15.05
2023-02-21T08:44:43.272Z,15.18
2023-02-21T08:45:43.666Z,15.43
2023-02-21T08:46:45.244Z,15.78
2023-02-21T08:47:45.851Z,16.02
2023-02-21T08:48:46.503Z,16.43
2023-02-21T08:49:46.466Z,16.77
2023-02-21T08:50:47.969Z,16.92
2023-02-21T08:51:48.891Z,17.27
2023-02-21T08:52:49.945Z,17.38
2023-02-21T08:53:50.443Z,17.46
2023-02-21T08:54:52.036Z,17.78
2023-02-21T08:55:51.291Z,17.86
2023-02-21T08:56:51.554Z,17.95
2023-02-21T08:57:51.814Z,18
2023-02-21T08:58:52.289Z,17.98
2023-02-21T08:59:52.931Z,17.86
2023-02-21T09:00:53.181Z,17.46
2023-02-21T09:01:53.679Z,17.54
2023-02-21T09:02:53.567Z,17.52
2023-02-21T09:03:54.517Z,17.6
2023-02-21T09:04:54.826Z,17.56
2023-02-21T09:05:55.340Z,17.68
2023-02-21T09:06:55.572Z,17.56
2023-02-21T09:07:56.791Z,17.57
2023-02-21T09:08:57.096Z,17.5
2023-02-21T09:10:01.030Z,17.53
2023-02-21T09:10:58.485Z,17.49
2023-02-21T09:11:59.111Z,17.47
2023-02-21T09:12:59.334Z,17.39
2023-02-21T09:13:59.566Z,17.22
2023-02-21T09:14:59.827Z,17.16
2023-02-21T09:16:00.749Z,16.97
2023-02-21T09:17:01.816Z,16.77
2023-02-21T09:18:02.113Z,16.69
2023-02-21T09:20:03.747Z,16.5
2023-02-21T09:21:03.978Z,16.4
2023-02-21T09:22:07.518Z,16.34
2023-02-21T09:23:05.865Z,16.24
2023-02-21T09:24:06.098Z,16.12
2023-02-21T09:25:07.066Z,16.28
2023-02-21T09:26:07.346Z,16.54
2023-02-21T09:27:07.625Z,16.69
2023-02-21T09:29:09.041Z,17.37
2023-02-21T09:30:09.521Z,17.47
2023-02-21T09:31:09.514Z,17.73
2023-02-21T09:32:10.696Z,17.94
2023-02-21T09:33:11.403Z,18.21
2023-02-21T09:34:12.375Z,18.64
2023-02-21T09:35:12.593Z,18.88
2023-02-21T09:36:12.880Z,19.15
2023-02-21T09:37:13.153Z,19.45
2023-02-21T09:38:13.169Z,19.66
2023-02-21T09:39:14.130Z,19.75
2023-02-21T09:40:15.086Z,19.79
2023-02-21T09:41:16.099Z,19.94
2023-02-21T09:42:16.188Z,19.94
2023-02-21T09:43:16.269Z,19.99
2023-02-21T09:44:16.536Z,20.26
2023-02-21T09:45:17.136Z,20.37
2023-02-21T09:46:18.190Z,20.67
2023-02-21T09:47:18.743Z,20.83
2023-02-21T09:48:18.717Z,20.9
2023-02-21T09:49:19.384Z,20.93
2023-02-21T09:50:19.894Z,20.86
2023-02-21T09:51:20.563Z,20.52
2023-02-21T09:52:20.777Z,20.18
2023-02-21T09:53:20.580Z,20.11
2023-02-21T09:54:22.122Z,19.94
2023-02-21T09:55:22.646Z,20.03
2023-02-21T09:56:23.324Z,20.15
2023-02-21T09:57:23.885Z,20.24
2023-02-21T09:58:24.125Z,20.67
2023-02-21T09:59:24.822Z,20.71
2023-02-21T10:00:26.449Z,20.78
2023-02-21T10:01:26.797Z,20.92
2023-02-21T10:02:27.237Z,20.93
2023-02-21T10:03:27.633Z,20.92
2023-02-21T10:04:28.383Z,20.96
2023-02-21T10:05:28.818Z,20.98
2023-02-21T10:06:29.148Z,20.95
2023-02-21T10:07:29.396Z,20.92
2023-02-21T10:08:30.033Z,20.86
2023-02-21T10:09:30.715Z,20.77
2023-02-21T10:10:31.675Z,20.75
2023-02-21T10:11:32.938Z,20.74
2023-02-21T10:12:33.892Z,20.66
2023-02-21T10:13:34.947Z,20.58
2023-02-21T10:14:34.917Z,20.42
2023-02-21T10:15:35.214Z,20.4
2023-02-21T10:16:35.928Z,20.36
2023-02-21T10:17:36.278Z,20.39
2023-02-21T10:18:37.065Z,20.42
2023-02-21T10:19:38.006Z,20.24
2023-02-21T10:20:37.701Z,20.26
2023-02-21T10:21:38.959Z,20.52
2023-02-21T10:22:39.228Z,20.82
2023-02-21T10:23:39.382Z,21.07
2023-02-21T10:24:39.874Z,21.32
2023-02-21T10:25:40.828Z,21.44
2023-02-21T10:26:41.562Z,21.47
2023-02-21T10:27:41.820Z,21.54
2023-02-21T10:28:42.336Z,21.6
2023-02-21T10:29:43.475Z,21.68
2023-02-21T10:30:44.403Z,21.68
2023-02-21T10:31:43.980Z,21.75
2023-02-21T10:32:44.254Z,21.85
2023-02-21T10:33:44.656Z,21.75
2023-02-21T10:34:47.737Z,21.84
2023-02-21T10:35:45.666Z,21.83
2023-02-21T10:36:46.688Z,21.97
2023-02-21T10:37:47.123Z,22.3
2023-02-21T10:38:47.639Z,22.58
2023-02-21T10:39:47.897Z,22.67
2023-02-21T10:40:48.185Z,22.56
2023-02-21T10:41:49.188Z,22.52
2023-02-21T10:42:50.461Z,22.43
2023-02-21T10:43:50.591Z,22.61
2023-02-21T10:44:50.336Z,22.8
2023-02-21T10:45:52.826Z,23.02
2023-02-21T10:46:52.871Z,23.11
2023-02-21T10:47:53.218Z,23.18
2023-02-21T10:48:52.910Z,23.25
2023-02-21T10:49:54.301Z,23.36
2023-02-21T10:50:55.241Z,23.59
2023-02-21T10:51:55.783Z,23.62
2023-02-21T10:52:56.270Z,23.73
2023-02-21T10:53:56.994Z,23.85
2023-02-21T10:54:56.955Z,23.92
2023-02-21T10:55:58.187Z,23.88
2023-02-21T10:56:59.267Z,24.06
2023-02-21T10:57:59.236Z,24.06
2023-02-21T10:59:00.482Z,24.26
2023-02-21T11:00:00.210Z,24.32
2023-02-21T11:01:01.591Z,24.38
2023-02-21T11:02:02.859Z,24.51
2023-02-21T11:03:03.311Z,24.63
2023-02-21T11:04:03.874Z,24.55
2023-02-21T11:05:04.568Z,24.26
2023-02-21T11:06:05.544Z,24.18
2023-02-21T11:07:05.286Z,23.99
2023-02-21T11:08:06.662Z,23.85
2023-02-21T11:09:06.330Z,23.81
2023-02-21T11:10:07.630Z,23.79
2023-02-21T11:11:08.940Z,23.7
2023-02-21T11:12:09.691Z,23.67
2023-02-21T11:13:09.806Z,23.63
2023-02-21T11:14:10.191Z,23.67
2023-02-21T11:15:11.485Z,23.44
2023-02-21T11:16:12.090Z,23.36
2023-02-21T11:17:14.787Z,23.42
2023-02-21T11:18:12.500Z,23.49
2023-02-21T11:19:13.459Z,23.4
2023-02-21T11:20:14.398Z,23.29
2023-02-21T11:21:16.426Z,23.08
2023-02-21T11:22:15.856Z,22.96
2023-02-21T11:23:16.479Z,22.92
2023-02-21T11:24:17.309Z,22.77
2023-02-21T11:25:17.579Z,22.51
2023-02-21T11:26:18.094Z,22.34
2023-02-21T11:27:19.051Z,22.23
2023-02-21T11:28:19.458Z,22.08
2023-02-21T11:29:20.419Z,22.03
2023-02-21T11:30:20.894Z,21.88
2023-02-21T11:31:21.822Z,21.94
2023-02-21T11:32:22.440Z,21.78
2023-02-21T11:33:22.448Z,21.83
2023-02-21T11:34:22.753Z,21.78
2023-02-21T11:35:23.004Z,21.62
2023-02-21T11:36:23.532Z,21.65
2023-02-21T11:37:23.486Z,21.62
2023-02-21T11:38:23.536Z,21.69
2023-02-21T11:39:24.829Z,21.65
2023-02-21T11:40:24.778Z,21.66
2023-02-21T11:41:26.059Z,21.66
2023-02-21T11:42:26.615Z,21.84
2023-02-21T11:43:27.171Z,21.89
2023-02-21T11:44:27.322Z,21.91
2023-02-21T11:45:27.848Z,21.94
2023-02-21T11:46:28.833Z,21.85
2023-02-21T11:47:28.846Z,21.75
2023-02-21T11:48:29.364Z,21.83
2023-02-21T11:49:30.301Z,21.84
2023-02-21T11:50:30.246Z,21.74
2023-02-21T11:51:30.764Z,21.65
2023-02-21T11:52:31.023Z,21.62
2023-02-21T11:53:31.565Z,21.59
2023-02-21T11:54:31.928Z,21.56
2023-02-21T11:55:32.599Z,21.66
2023-02-21T11:56:33.119Z,21.7
2023-02-21T11:57:33.163Z,21.68
2023-02-21T11:58:33.704Z,21.68
2023-02-21T11:59:33.952Z,21.59
2023-02-21T12:00:34.512Z,21.75
2023-02-21T12:01:34.976Z,21.88
2023-02-21T12:02:35.996Z,21.97
2023-02-21T12:03:36.346Z,21.89
2023-02-21T12:04:36.425Z,21.83
2023-02-21T12:05:37.565Z,21.85
2023-02-21T12:06:38.295Z,21.84
2023-02-21T12:07:38.908Z,21.77
2023-02-21T12:08:39.408Z,21.68
2023-02-21T12:09:39.763Z,21.62
2023-02-21T12:10:39.433Z,21.63
2023-02-21T12:11:40.930Z,21.48
2023-02-21T12:12:40.918Z,21.33
2023-02-21T12:13:42.435Z,21.29
2023-02-21T12:14:42.459Z,21.13
2023-02-21T12:15:43.203Z,21.11
2023-02-21T12:16:43.863Z,21.05
2023-02-21T12:17:44.368Z,21.07
2023-02-21T12:18:44.884Z,20.9
2023-02-21T12:19:45.115Z,20.86
2023-02-21T12:20:45.352Z,20.82
2023-02-21T12:21:45.648Z,20.74
2023-02-21T12:22:48.492Z,20.67
2023-02-21T12:23:47.215Z,20.73
2023-02-21T12:24:47.604Z,20.8
2023-02-21T12:25:48.263Z,20.86
2023-02-21T12:26:49.193Z,20.82
2023-02-21T12:27:49.143Z,20.8
2023-02-21T12:28:50.097Z,20.82
2023-02-21T12:29:51.037Z,20.55
2023-02-21T12:30:51.104Z,20.49
2023-02-21T12:31:52.222Z,20.26
2023-02-21T12:32:52.010Z,20.19
2023-02-21T12:33:52.372Z,20.12
2023-02-21T12:34:53.697Z,20.26
2023-02-21T12:35:53.856Z,20.27
2023-02-21T12:36:54.819Z,20.33
2023-02-21T12:37:55.602Z,20.48
2023-02-21T12:38:56.839Z,20.63
2023-02-21T12:39:56.775Z,20.63
2023-02-21T12:40:58.007Z,20.7
2023-02-21T12:41:57.955Z,20.56
2023-02-21T12:42:58.488Z,20.52
2023-02-21T12:43:59.167Z,20.52
2023-02-21T12:44:59.796Z,20.5
2023-02-21T12:46:00.057Z,20.66
2023-02-21T12:47:00.390Z,20.63
2023-02-21T12:48:01.624Z,20.55
2023-02-21T12:49:02.552Z,20.49
2023-02-21T12:50:03.204Z,20.64
2023-02-21T12:51:04.431Z,20.58
2023-02-21T12:52:05.057Z,20.66
2023-02-21T12:53:05.750Z,20.66
2023-02-21T12:54:06.996Z,20.59
2023-02-21T12:55:07.442Z,20.6
2023-02-21T12:56:07.676Z,20.44
2023-02-21T12:57:08.621Z,20.37
2023-02-21T12:58:09.156Z,20.3
2023-02-21T12:59:09.404Z,20.39
2023-02-21T13:00:09.762Z,20.44
2023-02-21T13:01:10.282Z,20.5
2023-02-21T13:02:10.755Z,20.52
2023-02-21T13:03:12.253Z,20.39
2023-02-21T13:04:12.790Z,20.37
2023-02-21T13:05:12.929Z,20.5
2023-02-21T13:06:13.591Z,20.53
2023-02-21T13:07:14.849Z,20.48
2023-02-21T13:08:15.449Z,20.46
2023-02-21T13:09:15.847Z,20.37
2023-02-21T13:10:16.373Z,20.5
2023-02-21T13:11:17.294Z,20.53
2023-02-21T13:12:17.016Z,20.7
2023-02-21T13:13:17.575Z,20.83
2023-02-21T13:14:17.861Z,20.93
2023-02-21T13:15:18.351Z,21
2023-02-21T13:16:18.900Z,21.2
2023-02-21T13:17:22.355Z,21.43
2023-02-21T13:18:20.623Z,21.48
2023-02-21T13:19:20.621Z,21.58